Laurie, Missouri
Current Conditions -  °F | °C
As of 12:55 PM on Sunday 23 Nov 2014 (Local Time) from KAIZ Reporting Station
Overcast Overcast  
Wind Chill: 55°   Ceiling: 600
Heat Index: 55°   Visibility: 3mi
Dew Point: 52°   Wind: 3mph
Humidity: 88%   Direction: 130°SE
Pressure: 29.4"   Gusts: NA
Location:  38.2°N, 92.83°W
Report Text: KAIZ 231855Z AUTO 13003KT 3SM OVC006 13/11 A2940 RMK AO1
Loading
Personal Weather Stations






























Interactive Weather Map New forecast layout! Learn more

10-Day Weather Forecast

Advertisements
Track Severe Weather on mobile